sensor_id;sensor_type;location;lat;lon;timestamp;P1;durP1;ratioP1;P2;durP2;ratioP2
46941;SDS011;32676;52.630;4.896;2023-06-22T00:01:12;47.55;;;28.20;;
46941;SDS011;32676;52.630;4.896;2023-06-22T00:03:38;43.53;;;26.23;;
46941;SDS011;32676;52.630;4.896;2023-06-22T00:06:05;42.92;;;25.45;;
46941;SDS011;32676;52.630;4.896;2023-06-22T00:08:31;40.78;;;25.85;;
46941;SDS011;32676;52.630;4.896;2023-06-22T00:10:58;32.72;;;23.77;;
46941;SDS011;32676;52.630;4.896;2023-06-22T00:13:24;35.88;;;22.95;;
46941;SDS011;32676;52.630;4.896;2023-06-22T00:15:52;34.40;;;20.15;;
46941;SDS011;32676;52.630;4.896;2023-06-22T00:18:18;40.30;;;23.65;;
46941;SDS011;32676;52.630;4.896;2023-06-22T00:20:45;48.50;;;26.13;;
46941;SDS011;32676;52.630;4.896;2023-06-22T00:23:11;44.08;;;25.25;;
46941;SDS011;32676;52.630;4.896;2023-06-22T00:25:40;44.25;;;26.77;;
46941;SDS011;32676;52.630;4.896;2023-06-22T00:28:07;43.35;;;24.75;;
46941;SDS011;32676;52.630;4.896;2023-06-22T00:30:34;42.05;;;26.77;;
46941;SDS011;32676;52.630;4.896;2023-06-22T00:33:02;43.92;;;27.38;;
46941;SDS011;32676;52.630;4.896;2023-06-22T00:35:32;42.20;;;26.80;;
46941;SDS011;32676;52.630;4.896;2023-06-22T00:38:00;35.00;;;21.60;;
46941;SDS011;32676;52.630;4.896;2023-06-22T00:40:27;26.30;;;17.05;;
46941;SDS011;32676;52.630;4.896;2023-06-22T00:42:54;20.05;;;11.48;;
46941;SDS011;32676;52.630;4.896;2023-06-22T00:45:21;20.30;;;13.93;;
46941;SDS011;32676;52.630;4.896;2023-06-22T00:47:49;22.80;;;14.38;;
46941;SDS011;32676;52.630;4.896;2023-06-22T00:50:18;23.17;;;15.60;;
46941;SDS011;32676;52.630;4.896;2023-06-22T00:52:47;28.92;;;18.35;;
46941;SDS011;32676;52.630;4.896;2023-06-22T00:55:16;34.50;;;19.17;;
46941;SDS011;32676;52.630;4.896;2023-06-22T00:57:43;28.48;;;19.08;;
46941;SDS011;32676;52.630;4.896;2023-06-22T01:00:12;32.78;;;20.33;;
46941;SDS011;32676;52.630;4.896;2023-06-22T01:02:44;38.33;;;22.48;;
46941;SDS011;32676;52.630;4.896;2023-06-22T01:05:11;35.28;;;21.95;;
46941;SDS011;32676;52.630;4.896;2023-06-22T01:07:41;32.15;;;19.65;;
46941;SDS011;32676;52.630;4.896;2023-06-22T01:10:16;24.25;;;15.98;;
46941;SDS011;32676;52.630;4.896;2023-06-22T01:12:48;24.75;;;16.63;;
46941;SDS011;32676;52.630;4.896;2023-06-22T01:15:21;24.65;;;16.42;;
46941;SDS011;32676;52.630;4.896;2023-06-22T01:17:51;28.20;;;15.98;;
46941;SDS011;32676;52.630;4.896;2023-06-22T01:20:19;34.10;;;15.15;;
46941;SDS011;32676;52.630;4.896;2023-06-22T01:22:53;28.23;;;14.75;;
46941;SDS011;32676;52.630;4.896;2023-06-22T01:25:36;29.60;;;17.13;;
46941;SDS011;32676;52.630;4.896;2023-06-22T01:28:17;28.30;;;17.85;;
46941;SDS011;32676;52.630;4.896;2023-06-22T01:30:53;30.65;;;18.05;;
46941;SDS011;32676;52.630;4.896;2023-06-22T01:33:30;32.35;;;20.48;;
46941;SDS011;32676;52.630;4.896;2023-06-22T01:35:59;31.17;;;20.25;;
46941;SDS011;32676;52.630;4.896;2023-06-22T01:38:26;32.08;;;19.77;;
46941;SDS011;32676;52.630;4.896;2023-06-22T01:40:54;28.23;;;19.55;;
46941;SDS011;32676;52.630;4.896;2023-06-22T01:43:23;32.47;;;21.83;;
46941;SDS011;32676;52.630;4.896;2023-06-22T01:45:52;31.23;;;21.50;;
46941;SDS011;32676;52.630;4.896;2023-06-22T01:48:19;30.65;;;20.63;;
46941;SDS011;32676;52.630;4.896;2023-06-22T01:50:47;31.83;;;21.48;;
46941;SDS011;32676;52.630;4.896;2023-06-22T01:53:13;32.88;;;21.42;;
46941;SDS011;32676;52.630;4.896;2023-06-22T01:55:40;34.65;;;22.02;;
46941;SDS011;32676;52.630;4.896;2023-06-22T01:58:06;30.30;;;20.38;;
46941;SDS011;32676;52.630;4.896;2023-06-22T02:00:34;31.08;;;20.98;;
46941;SDS011;32676;52.630;4.896;2023-06-22T02:03:08;31.25;;;22.38;;
46941;SDS011;32676;52.630;4.896;2023-06-22T02:05:38;37.28;;;23.52;;
46941;SDS011;32676;52.630;4.896;2023-06-22T02:08:08;34.08;;;23.30;;
46941;SDS011;32676;52.630;4.896;2023-06-22T02:10:37;40.45;;;23.33;;
46941;SDS011;32676;52.630;4.896;2023-06-22T02:13:07;37.92;;;24.50;;
46941;SDS011;32676;52.630;4.896;2023-06-22T02:15:37;37.67;;;23.98;;
46941;SDS011;32676;52.630;4.896;2023-06-22T02:18:04;34.67;;;24.40;;
46941;SDS011;32676;52.630;4.896;2023-06-22T02:20:32;32.03;;;22.52;;
46941;SDS011;32676;52.630;4.896;2023-06-22T02:23:02;34.67;;;23.65;;
46941;SDS011;32676;52.630;4.896;2023-06-22T02:25:28;42.47;;;26.08;;
46941;SDS011;32676;52.630;4.896;2023-06-22T02:27:55;40.92;;;22.60;;
46941;SDS011;32676;52.630;4.896;2023-06-22T02:30:21;33.83;;;23.27;;
46941;SDS011;32676;52.630;4.896;2023-06-22T02:32:47;35.15;;;24.02;;
46941;SDS011;32676;52.630;4.896;2023-06-22T02:35:14;40.00;;;26.83;;
46941;SDS011;32676;52.630;4.896;2023-06-22T02:37:42;34.90;;;24.30;;
46941;SDS011;32676;52.630;4.896;2023-06-22T02:40:08;39.05;;;24.48;;
46941;SDS011;32676;52.630;4.896;2023-06-22T02:42:35;35.85;;;23.98;;
46941;SDS011;32676;52.630;4.896;2023-06-22T02:45:02;37.95;;;23.95;;
46941;SDS011;32676;52.630;4.896;2023-06-22T02:47:28;37.53;;;24.42;;
46941;SDS011;32676;52.630;4.896;2023-06-22T02:49:55;46.67;;;28.45;;
46941;SDS011;32676;52.630;4.896;2023-06-22T02:52:21;41.08;;;28.17;;
46941;SDS011;32676;52.630;4.896;2023-06-22T02:54:49;48.60;;;32.00;;
46941;SDS011;32676;52.630;4.896;2023-06-22T02:57:17;48.15;;;30.48;;
46941;SDS011;32676;52.630;4.896;2023-06-22T02:59:43;42.83;;;28.23;;
46941;SDS011;32676;52.630;4.896;2023-06-22T03:02:09;39.95;;;26.88;;
46941;SDS011;32676;52.630;4.896;2023-06-22T03:04:37;45.75;;;27.52;;
46941;SDS011;32676;52.630;4.896;2023-06-22T03:07:03;52.72;;;31.90;;
46941;SDS011;32676;52.630;4.896;2023-06-22T03:09:30;44.22;;;30.92;;
46941;SDS011;32676;52.630;4.896;2023-06-22T03:11:58;51.15;;;31.63;;
46941;SDS011;32676;52.630;4.896;2023-06-22T03:14:25;51.90;;;33.35;;
46941;SDS011;32676;52.630;4.896;2023-06-22T03:16:51;48.53;;;31.92;;
46941;SDS011;32676;52.630;4.896;2023-06-22T03:19:18;49.28;;;30.15;;
46941;SDS011;32676;52.630;4.896;2023-06-22T03:21:46;49.95;;;31.63;;
46941;SDS011;32676;52.630;4.896;2023-06-22T03:24:13;50.40;;;30.55;;
46941;SDS011;32676;52.630;4.896;2023-06-22T03:26:39;50.88;;;29.20;;
46941;SDS011;32676;52.630;4.896;2023-06-22T03:29:07;51.55;;;32.45;;
46941;SDS011;32676;52.630;4.896;2023-06-22T03:31:33;47.72;;;30.17;;
46941;SDS011;32676;52.630;4.896;2023-06-22T03:34:00;51.25;;;29.85;;
46941;SDS011;32676;52.630;4.896;2023-06-22T03:36:26;46.17;;;32.17;;
46941;SDS011;32676;52.630;4.896;2023-06-22T03:38:53;43.50;;;29.52;;
46941;SDS011;32676;52.630;4.896;2023-06-22T03:41:19;49.33;;;30.42;;
46941;SDS011;32676;52.630;4.896;2023-06-22T03:43:45;52.40;;;29.65;;
46941;SDS011;32676;52.630;4.896;2023-06-22T03:46:14;52.95;;;31.85;;
46941;SDS011;32676;52.630;4.896;2023-06-22T03:48:40;50.33;;;30.38;;
46941;SDS011;32676;52.630;4.896;2023-06-22T03:51:07;48.67;;;32.20;;
46941;SDS011;32676;52.630;4.896;2023-06-22T03:53:33;54.28;;;32.35;;
46941;SDS011;32676;52.630;4.896;2023-06-22T03:56:00;49.25;;;30.83;;
46941;SDS011;32676;52.630;4.896;2023-06-22T03:58:26;41.28;;;27.00;;
46941;SDS011;32676;52.630;4.896;2023-06-22T04:00:57;42.75;;;27.85;;
46941;SDS011;32676;52.630;4.896;2023-06-22T04:03:26;41.08;;;26.08;;
46941;SDS011;32676;52.630;4.896;2023-06-22T04:05:52;37.72;;;26.00;;
46941;SDS011;32676;52.630;4.896;2023-06-22T04:08:19;47.38;;;26.60;;
46941;SDS011;32676;52.630;4.896;2023-06-22T04:10:45;42.38;;;27.70;;
46941;SDS011;32676;52.630;4.896;2023-06-22T04:13:12;40.83;;;27.23;;
46941;SDS011;32676;52.630;4.896;2023-06-22T04:15:38;45.80;;;26.33;;
46941;SDS011;32676;52.630;4.896;2023-06-22T04:18:05;50.80;;;27.13;;
46941;SDS011;32676;52.630;4.896;2023-06-22T04:20:32;39.53;;;25.63;;
46941;SDS011;32676;52.630;4.896;2023-06-22T04:22:59;38.72;;;26.27;;
46941;SDS011;32676;52.630;4.896;2023-06-22T04:25:25;44.10;;;26.05;;
46941;SDS011;32676;52.630;4.896;2023-06-22T04:27:52;44.50;;;25.65;;
46941;SDS011;32676;52.630;4.896;2023-06-22T04:30:18;38.50;;;24.55;;
46941;SDS011;32676;52.630;4.896;2023-06-22T04:32:45;35.63;;;24.48;;
46941;SDS011;32676;52.630;4.896;2023-06-22T04:35:22;43.25;;;26.75;;
46941;SDS011;32676;52.630;4.896;2023-06-22T04:37:50;43.63;;;26.75;;
46941;SDS011;32676;52.630;4.896;2023-06-22T04:40:20;39.53;;;25.63;;
46941;SDS011;32676;52.630;4.896;2023-06-22T04:42:47;40.50;;;25.98;;
46941;SDS011;32676;52.630;4.896;2023-06-22T04:45:17;38.90;;;25.83;;
46941;SDS011;32676;52.630;4.896;2023-06-22T04:47:44;36.17;;;24.80;;
46941;SDS011;32676;52.630;4.896;2023-06-22T04:50:11;39.47;;;23.48;;
46941;SDS011;32676;52.630;4.896;2023-06-22T04:52:37;39.20;;;25.17;;
46941;SDS011;32676;52.630;4.896;2023-06-22T04:55:06;42.05;;;24.25;;
46941;SDS011;32676;52.630;4.896;2023-06-22T04:57:33;44.38;;;25.55;;
46941;SDS011;32676;52.630;4.896;2023-06-22T05:00:00;51.28;;;24.05;;
46941;SDS011;32676;52.630;4.896;2023-06-22T05:02:37;35.40;;;23.15;;
46941;SDS011;32676;52.630;4.896;2023-06-22T05:05:04;41.03;;;25.95;;
46941;SDS011;32676;52.630;4.896;2023-06-22T05:07:32;37.38;;;22.52;;
46941;SDS011;32676;52.630;4.896;2023-06-22T05:09:58;37.38;;;24.08;;
46941;SDS011;32676;52.630;4.896;2023-06-22T05:12:27;35.97;;;22.02;;
46941;SDS011;32676;52.630;4.896;2023-06-22T05:14:54;43.33;;;21.60;;
46941;SDS011;32676;52.630;4.896;2023-06-22T05:17:21;38.72;;;22.60;;
46941;SDS011;32676;52.630;4.896;2023-06-22T05:19:47;39.50;;;23.73;;
46941;SDS011;32676;52.630;4.896;2023-06-22T05:22:14;40.97;;;23.52;;
46941;SDS011;32676;52.630;4.896;2023-06-22T05:24:41;32.53;;;21.67;;
46941;SDS011;32676;52.630;4.896;2023-06-22T05:27:07;32.92;;;22.02;;
46941;SDS011;32676;52.630;4.896;2023-06-22T05:29:36;28.88;;;20.98;;
46941;SDS011;32676;52.630;4.896;2023-06-22T05:32:03;32.33;;;20.67;;
46941;SDS011;32676;52.630;4.896;2023-06-22T05:34:30;34.47;;;22.38;;
46941;SDS011;32676;52.630;4.896;2023-06-22T05:36:56;37.85;;;22.88;;
46941;SDS011;32676;52.630;4.896;2023-06-22T05:39:24;49.55;;;21.70;;
46941;SDS011;32676;52.630;4.896;2023-06-22T05:41:50;31.80;;;20.92;;
46941;SDS011;32676;52.630;4.896;2023-06-22T05:44:18;32.50;;;22.33;;
46941;SDS011;32676;52.630;4.896;2023-06-22T05:46:45;33.05;;;22.13;;
46941;SDS011;32676;52.630;4.896;2023-06-22T05:49:13;33.95;;;21.85;;
46941;SDS011;32676;52.630;4.896;2023-06-22T05:51:40;32.70;;;20.80;;
46941;SDS011;32676;52.630;4.896;2023-06-22T05:54:07;32.17;;;20.85;;
46941;SDS011;32676;52.630;4.896;2023-06-22T05:56:34;33.35;;;21.50;;
46941;SDS011;32676;52.630;4.896;2023-06-22T05:59:00;28.63;;;20.33;;
46941;SDS011;32676;52.630;4.896;2023-06-22T06:01:26;37.10;;;22.48;;
46941;SDS011;32676;52.630;4.896;2023-06-22T06:03:54;33.88;;;22.65;;
46941;SDS011;32676;52.630;4.896;2023-06-22T06:06:21;34.15;;;21.58;;
46941;SDS011;32676;52.630;4.896;2023-06-22T06:08:53;37.30;;;21.67;;
46941;SDS011;32676;52.630;4.896;2023-06-22T06:11:20;35.30;;;22.55;;
46941;SDS011;32676;52.630;4.896;2023-06-22T06:13:46;37.35;;;23.08;;
46941;SDS011;32676;52.630;4.896;2023-06-22T06:16:13;36.75;;;23.23;;
46941;SDS011;32676;52.630;4.896;2023-06-22T06:18:39;35.22;;;22.63;;
46941;SDS011;32676;52.630;4.896;2023-06-22T06:21:07;35.67;;;23.02;;
46941;SDS011;32676;52.630;4.896;2023-06-22T06:23:33;35.90;;;23.25;;
46941;SDS011;32676;52.630;4.896;2023-06-22T06:26:00;38.80;;;22.40;;
46941;SDS011;32676;52.630;4.896;2023-06-22T06:28:27;34.65;;;20.85;;
46941;SDS011;32676;52.630;4.896;2023-06-22T06:30:53;31.63;;;21.48;;
46941;SDS011;32676;52.630;4.896;2023-06-22T06:33:20;35.80;;;19.73;;
46941;SDS011;32676;52.630;4.896;2023-06-22T06:35:46;32.47;;;20.55;;
46941;SDS011;32676;52.630;4.896;2023-06-22T06:38:14;30.80;;;19.83;;
46941;SDS011;32676;52.630;4.896;2023-06-22T06:40:41;29.33;;;19.27;;
46941;SDS011;32676;52.630;4.896;2023-06-22T06:43:07;24.20;;;17.75;;
46941;SDS011;32676;52.630;4.896;2023-06-22T06:45:33;30.27;;;18.38;;
46941;SDS011;32676;52.630;4.896;2023-06-22T06:48:00;23.05;;;17.58;;
46941;SDS011;32676;52.630;4.896;2023-06-22T06:50:27;27.35;;;17.77;;
46941;SDS011;32676;52.630;4.896;2023-06-22T06:52:54;27.20;;;17.63;;
46941;SDS011;32676;52.630;4.896;2023-06-22T06:55:22;22.58;;;16.33;;
46941;SDS011;32676;52.630;4.896;2023-06-22T06:57:50;26.30;;;15.68;;
46941;SDS011;32676;52.630;4.896;2023-06-22T07:00:18;27.00;;;16.05;;
46941;SDS011;32676;52.630;4.896;2023-06-22T07:02:45;28.55;;;16.20;;
46941;SDS011;32676;52.630;4.896;2023-06-22T07:05:13;23.63;;;15.23;;
46941;SDS011;32676;52.630;4.896;2023-06-22T07:07:39;25.55;;;17.63;;
46941;SDS011;32676;52.630;4.896;2023-06-22T07:10:07;25.88;;;15.27;;
46941;SDS011;32676;52.630;4.896;2023-06-22T07:12:35;24.00;;;14.50;;
46941;SDS011;32676;52.630;4.896;2023-06-22T07:15:02;21.10;;;13.23;;
46941;SDS011;32676;52.630;4.896;2023-06-22T07:17:30;19.92;;;12.57;;
46941;SDS011;32676;52.630;4.896;2023-06-22T07:19:56;20.55;;;12.02;;
46941;SDS011;32676;52.630;4.896;2023-06-22T07:22:23;22.45;;;12.63;;
46941;SDS011;32676;52.630;4.896;2023-06-22T07:24:49;22.92;;;12.52;;
46941;SDS011;32676;52.630;4.896;2023-06-22T07:27:16;18.23;;;12.23;;
46941;SDS011;32676;52.630;4.896;2023-06-22T07:29:45;23.35;;;12.88;;
46941;SDS011;32676;52.630;4.896;2023-06-22T07:32:12;15.43;;;11.05;;
46941;SDS011;32676;52.630;4.896;2023-06-22T07:34:38;19.90;;;11.15;;
46941;SDS011;32676;52.630;4.896;2023-06-22T07:37:05;17.45;;;11.85;;
46941;SDS011;32676;52.630;4.896;2023-06-22T07:39:31;19.45;;;12.32;;
46941;SDS011;32676;52.630;4.896;2023-06-22T07:41:58;19.02;;;11.90;;
46941;SDS011;32676;52.630;4.896;2023-06-22T07:44:24;21.45;;;12.80;;
46941;SDS011;32676;52.630;4.896;2023-06-22T07:46:52;17.08;;;12.65;;
46941;SDS011;32676;52.630;4.896;2023-06-22T07:49:19;19.27;;;13.38;;
46941;SDS011;32676;52.630;4.896;2023-06-22T07:51:45;19.10;;;12.27;;
46941;SDS011;32676;52.630;4.896;2023-06-22T07:54:13;20.92;;;11.85;;
46941;SDS011;32676;52.630;4.896;2023-06-22T07:56:40;20.20;;;12.70;;
46941;SDS011;32676;52.630;4.896;2023-06-22T07:59:07;19.42;;;12.68;;
46941;SDS011;32676;52.630;4.896;2023-06-22T08:01:34;18.55;;;12.55;;
46941;SDS011;32676;52.630;4.896;2023-06-22T08:04:02;17.20;;;12.35;;
46941;SDS011;32676;52.630;4.896;2023-06-22T08:06:30;20.00;;;13.23;;
46941;SDS011;32676;52.630;4.896;2023-06-22T08:08:57;18.77;;;12.20;;
46941;SDS011;32676;52.630;4.896;2023-06-22T08:11:24;19.30;;;13.27;;
46941;SDS011;32676;52.630;4.896;2023-06-22T08:13:50;19.27;;;13.30;;
46941;SDS011;32676;52.630;4.896;2023-06-22T08:16:17;26.23;;;13.75;;
46941;SDS011;32676;52.630;4.896;2023-06-22T08:18:43;22.08;;;12.35;;
46941;SDS011;32676;52.630;4.896;2023-06-22T08:21:11;24.80;;;13.48;;
46941;SDS011;32676;52.630;4.896;2023-06-22T08:23:38;20.98;;;13.20;;
46941;SDS011;32676;52.630;4.896;2023-06-22T08:26:04;17.25;;;12.38;;
46941;SDS011;32676;52.630;4.896;2023-06-22T08:28:31;21.67;;;12.50;;
46941;SDS011;32676;52.630;4.896;2023-06-22T08:30:57;23.25;;;12.45;;
46941;SDS011;32676;52.630;4.896;2023-06-22T08:33:26;16.33;;;11.43;;
46941;SDS011;32676;52.630;4.896;2023-06-22T08:35:53;19.83;;;13.02;;
46941;SDS011;32676;52.630;4.896;2023-06-22T08:38:21;19.45;;;11.75;;
46941;SDS011;32676;52.630;4.896;2023-06-22T08:40:48;19.35;;;11.52;;
46941;SDS011;32676;52.630;4.896;2023-06-22T08:43:14;19.27;;;12.10;;
46941;SDS011;32676;52.630;4.896;2023-06-22T08:45:41;14.90;;;9.98;;
46941;SDS011;32676;52.630;4.896;2023-06-22T08:48:07;20.27;;;12.00;;
46941;SDS011;32676;52.630;4.896;2023-06-22T08:50:34;31.20;;;12.57;;
46941;SDS011;32676;52.630;4.896;2023-06-22T08:53:00;18.13;;;10.93;;
46941;SDS011;32676;52.630;4.896;2023-06-22T08:55:28;18.88;;;10.52;;
46941;SDS011;32676;52.630;4.896;2023-06-22T08:57:54;17.55;;;10.27;;
46941;SDS011;32676;52.630;4.896;2023-06-22T09:00:21;16.48;;;10.63;;
46941;SDS011;32676;52.630;4.896;2023-06-22T09:02:48;18.77;;;9.48;;
46941;SDS011;32676;52.630;4.896;2023-06-22T09:05:15;13.55;;;8.52;;
46941;SDS011;32676;52.630;4.896;2023-06-22T09:07:41;15.93;;;8.70;;
46941;SDS011;32676;52.630;4.896;2023-06-22T09:10:08;16.92;;;9.70;;
46941;SDS011;32676;52.630;4.896;2023-06-22T09:12:36;20.65;;;9.25;;
46941;SDS011;32676;52.630;4.896;2023-06-22T09:15:03;17.75;;;11.30;;
46941;SDS011;32676;52.630;4.896;2023-06-22T09:17:31;16.33;;;8.27;;
46941;SDS011;32676;52.630;4.896;2023-06-22T09:19:59;17.48;;;9.90;;
46941;SDS011;32676;52.630;4.896;2023-06-22T09:22:25;16.95;;;9.68;;
46941;SDS011;32676;52.630;4.896;2023-06-22T09:24:54;17.48;;;9.88;;
46941;SDS011;32676;52.630;4.896;2023-06-22T09:27:21;11.75;;;8.85;;
46941;SDS011;32676;52.630;4.896;2023-06-22T09:29:49;15.00;;;9.23;;
46941;SDS011;32676;52.630;4.896;2023-06-22T09:32:15;19.10;;;10.93;;
46941;SDS011;32676;52.630;4.896;2023-06-22T09:34:41;20.63;;;11.27;;
46941;SDS011;32676;52.630;4.896;2023-06-22T09:37:08;16.95;;;10.13;;
46941;SDS011;32676;52.630;4.896;2023-06-22T09:39:35;15.65;;;9.88;;
46941;SDS011;32676;52.630;4.896;2023-06-22T09:42:01;11.90;;;8.85;;
46941;SDS011;32676;52.630;4.896;2023-06-22T09:44:30;13.70;;;9.88;;
46941;SDS011;32676;52.630;4.896;2023-06-22T09:46:58;17.05;;;10.63;;
46941;SDS011;32676;52.630;4.896;2023-06-22T09:49:24;21.52;;;11.43;;
46941;SDS011;32676;52.630;4.896;2023-06-22T09:51:51;15.32;;;9.52;;
46941;SDS011;32676;52.630;4.896;2023-06-22T09:54:18;19.13;;;9.60;;
46941;SDS011;32676;52.630;4.896;2023-06-22T09:56:44;14.80;;;8.57;;
46941;SDS011;32676;52.630;4.896;2023-06-22T09:59:11;16.02;;;11.77;;
46941;SDS011;32676;52.630;4.896;2023-06-22T10:01:37;12.93;;;9.70;;
46941;SDS011;32676;52.630;4.896;2023-06-22T10:04:05;14.45;;;9.65;;
46941;SDS011;32676;52.630;4.896;2023-06-22T10:06:31;14.73;;;8.95;;
46941;SDS011;32676;52.630;4.896;2023-06-22T10:08:58;16.27;;;11.80;;
46941;SDS011;32676;52.630;4.896;2023-06-22T10:11:24;16.13;;;9.63;;
46941;SDS011;32676;52.630;4.896;2023-06-22T10:13:55;17.95;;;9.68;;
46941;SDS011;32676;52.630;4.896;2023-06-22T10:16:23;16.48;;;10.30;;
46941;SDS011;32676;52.630;4.896;2023-06-22T10:18:51;17.70;;;11.07;;
46941;SDS011;32676;52.630;4.896;2023-06-22T10:21:19;22.25;;;10.50;;
46941;SDS011;32676;52.630;4.896;2023-06-22T10:23:46;15.45;;;10.00;;
46941;SDS011;32676;52.630;4.896;2023-06-22T10:26:12;20.23;;;10.40;;
46941;SDS011;32676;52.630;4.896;2023-06-22T10:28:39;17.15;;;10.88;;
46941;SDS011;32676;52.630;4.896;2023-06-22T10:31:05;15.75;;;10.23;;
46941;SDS011;32676;52.630;4.896;2023-06-22T10:33:31;19.80;;;9.82;;
46941;SDS011;32676;52.630;4.896;2023-06-22T10:35:58;12.20;;;8.98;;
46941;SDS011;32676;52.630;4.896;2023-06-22T10:38:26;17.52;;;10.18;;
46941;SDS011;32676;52.630;4.896;2023-06-22T10:40:52;15.85;;;9.13;;
46941;SDS011;32676;52.630;4.896;2023-06-22T10:43:19;17.20;;;9.48;;
46941;SDS011;32676;52.630;4.896;2023-06-22T10:45:45;15.40;;;9.48;;
46941;SDS011;32676;52.630;4.896;2023-06-22T10:48:12;14.65;;;8.40;;
46941;SDS011;32676;52.630;4.896;2023-06-22T10:50:38;12.82;;;8.88;;
46941;SDS011;32676;52.630;4.896;2023-06-22T10:53:05;17.98;;;9.50;;
46941;SDS011;32676;52.630;4.896;2023-06-22T10:55:33;11.68;;;8.23;;
46941;SDS011;32676;52.630;4.896;2023-06-22T10:57:59;14.75;;;8.95;;
46941;SDS011;32676;52.630;4.896;2023-06-22T11:00:26;11.63;;;8.25;;
46941;SDS011;32676;52.630;4.896;2023-06-22T11:02:52;13.70;;;8.95;;
46941;SDS011;32676;52.630;4.896;2023-06-22T11:05:19;15.05;;;8.32;;
46941;SDS011;32676;52.630;4.896;2023-06-22T11:07:45;16.38;;;9.88;;
46941;SDS011;32676;52.630;4.896;2023-06-22T11:10:13;14.55;;;8.10;;
46941;SDS011;32676;52.630;4.896;2023-06-22T11:12:41;18.05;;;9.18;;
46941;SDS011;32676;52.630;4.896;2023-06-22T11:15:08;15.07;;;8.00;;
46941;SDS011;32676;52.630;4.896;2023-06-22T11:17:35;13.02;;;8.20;;
46941;SDS011;32676;52.630;4.896;2023-06-22T11:20:02;14.05;;;7.18;;
46941;SDS011;32676;52.630;4.896;2023-06-22T11:22:34;12.35;;;7.47;;
46941;SDS011;32676;52.630;4.896;2023-06-22T11:25:01;12.15;;;7.03;;
46941;SDS011;32676;52.630;4.896;2023-06-22T11:27:27;12.50;;;7.50;;
46941;SDS011;32676;52.630;4.896;2023-06-22T11:29:55;15.02;;;7.72;;
46941;SDS011;32676;52.630;4.896;2023-06-22T11:32:22;14.07;;;7.28;;
46941;SDS011;32676;52.630;4.896;2023-06-22T11:34:48;9.90;;;6.30;;
46941;SDS011;32676;52.630;4.896;2023-06-22T11:37:15;13.70;;;8.15;;
46941;SDS011;32676;52.630;4.896;2023-06-22T11:39:42;16.33;;;8.85;;
46941;SDS011;32676;52.630;4.896;2023-06-22T11:42:08;13.40;;;6.25;;
46941;SDS011;32676;52.630;4.896;2023-06-22T11:44:35;16.25;;;7.15;;
46941;SDS011;32676;52.630;4.896;2023-06-22T11:47:04;12.85;;;8.82;;
46941;SDS011;32676;52.630;4.896;2023-06-22T11:49:31;17.27;;;9.23;;
46941;SDS011;32676;52.630;4.896;2023-06-22T11:51:57;19.42;;;8.15;;
46941;SDS011;32676;52.630;4.896;2023-06-22T11:54:24;17.58;;;8.93;;
46941;SDS011;32676;52.630;4.896;2023-06-22T11:56:50;14.75;;;8.32;;
46941;SDS011;32676;52.630;4.896;2023-06-22T11:59:17;13.20;;;8.70;;
46941;SDS011;32676;52.630;4.896;2023-06-22T12:01:43;12.10;;;8.60;;
46941;SDS011;32676;52.630;4.896;2023-06-22T12:04:11;12.40;;;9.45;;
46941;SDS011;32676;52.630;4.896;2023-06-22T12:06:38;13.85;;;8.45;;
46941;SDS011;32676;52.630;4.896;2023-06-22T12:09:07;14.88;;;8.52;;
46941;SDS011;32676;52.630;4.896;2023-06-22T12:11:33;10.00;;;7.75;;
46941;SDS011;32676;52.630;4.896;2023-06-22T12:14:00;14.38;;;8.85;;
46941;SDS011;32676;52.630;4.896;2023-06-22T12:16:27;18.98;;;9.63;;
46941;SDS011;32676;52.630;4.896;2023-06-22T12:18:53;13.82;;;7.80;;
46941;SDS011;32676;52.630;4.896;2023-06-22T12:21:21;13.93;;;7.55;;
46941;SDS011;32676;52.630;4.896;2023-06-22T12:23:48;10.90;;;7.63;;
46941;SDS011;32676;52.630;4.896;2023-06-22T12:26:14;16.27;;;7.13;;
46941;SDS011;32676;52.630;4.896;2023-06-22T12:28:41;10.20;;;6.80;;
46941;SDS011;32676;52.630;4.896;2023-06-22T12:31:08;13.90;;;5.90;;
46941;SDS011;32676;52.630;4.896;2023-06-22T12:33:35;7.78;;;5.07;;
46941;SDS011;32676;52.630;4.896;2023-06-22T12:36:01;8.15;;;5.18;;
46941;SDS011;32676;52.630;4.896;2023-06-22T12:38:31;7.72;;;5.32;;
46941;SDS011;32676;52.630;4.896;2023-06-22T12:40:57;13.55;;;4.75;;
46941;SDS011;32676;52.630;4.896;2023-06-22T12:43:24;8.30;;;4.55;;
46941;SDS011;32676;52.630;4.896;2023-06-22T12:45:51;8.02;;;4.72;;
46941;SDS011;32676;52.630;4.896;2023-06-22T12:48:18;13.50;;;5.03;;
46941;SDS011;32676;52.630;4.896;2023-06-22T12:50:45;8.48;;;3.80;;
46941;SDS011;32676;52.630;4.896;2023-06-22T12:53:12;5.65;;;3.67;;
46941;SDS011;32676;52.630;4.896;2023-06-22T12:55:41;10.68;;;4.35;;
46941;SDS011;32676;52.630;4.896;2023-06-22T12:58:07;13.05;;;4.43;;
46941;SDS011;32676;52.630;4.896;2023-06-22T13:00:34;6.28;;;4.97;;
46941;SDS011;32676;52.630;4.896;2023-06-22T13:03:00;7.05;;;4.65;;
46941;SDS011;32676;52.630;4.896;2023-06-22T13:05:27;6.65;;;4.82;;
46941;SDS011;32676;52.630;4.896;2023-06-22T13:07:53;14.00;;;4.25;;
46941;SDS011;32676;52.630;4.896;2023-06-22T13:10:20;7.93;;;4.78;;
46941;SDS011;32676;52.630;4.896;2023-06-22T13:12:47;8.13;;;4.40;;
46941;SDS011;32676;52.630;4.896;2023-06-22T13:15:14;8.07;;;4.82;;
46941;SDS011;32676;52.630;4.896;2023-06-22T13:17:40;16.33;;;4.97;;
46941;SDS011;32676;52.630;4.896;2023-06-22T13:20:07;7.88;;;4.85;;
46941;SDS011;32676;52.630;4.896;2023-06-22T13:22:35;7.95;;;4.40;;
46941;SDS011;32676;52.630;4.896;2023-06-22T13:25:05;8.25;;;4.20;;
46941;SDS011;32676;52.630;4.896;2023-06-22T13:27:32;5.93;;;4.20;;
46941;SDS011;32676;52.630;4.896;2023-06-22T13:30:00;11.55;;;4.75;;
46941;SDS011;32676;52.630;4.896;2023-06-22T13:32:27;8.20;;;4.47;;
46941;SDS011;32676;52.630;4.896;2023-06-22T13:34:54;9.23;;;4.30;;
46941;SDS011;32676;52.630;4.896;2023-06-22T13:37:21;7.15;;;4.15;;
46941;SDS011;32676;52.630;4.896;2023-06-22T13:39:47;8.40;;;4.38;;
46941;SDS011;32676;52.630;4.896;2023-06-22T13:42:14;6.72;;;4.30;;
46941;SDS011;32676;52.630;4.896;2023-06-22T13:44:40;14.32;;;4.43;;
46941;SDS011;32676;52.630;4.896;2023-06-22T13:47:08;6.28;;;3.75;;
46941;SDS011;32676;52.630;4.896;2023-06-22T13:49:35;9.00;;;4.07;;
46941;SDS011;32676;52.630;4.896;2023-06-22T13:52:01;10.65;;;3.80;;
46941;SDS011;32676;52.630;4.896;2023-06-22T13:54:29;10.50;;;4.50;;
46941;SDS011;32676;52.630;4.896;2023-06-22T13:56:55;7.20;;;3.65;;
46941;SDS011;32676;52.630;4.896;2023-06-22T13:59:22;6.78;;;3.60;;
46941;SDS011;32676;52.630;4.896;2023-06-22T14:01:48;10.18;;;3.90;;
46941;SDS011;32676;52.630;4.896;2023-06-22T14:04:16;11.43;;;3.60;;
46941;SDS011;32676;52.630;4.896;2023-06-22T14:06:43;7.07;;;3.47;;
46941;SDS011;32676;52.630;4.896;2023-06-22T14:09:09;6.32;;;3.05;;
46941;SDS011;32676;52.630;4.896;2023-06-22T14:11:36;6.10;;;3.53;;
46941;SDS011;32676;52.630;4.896;2023-06-22T14:14:02;7.95;;;3.33;;
46941;SDS011;32676;52.630;4.896;2023-06-22T14:16:29;6.65;;;3.53;;
46941;SDS011;32676;52.630;4.896;2023-06-22T14:18:55;7.40;;;3.90;;
46941;SDS011;32676;52.630;4.896;2023-06-22T14:21:23;9.60;;;3.50;;
46941;SDS011;32676;52.630;4.896;2023-06-22T14:23:50;11.50;;;3.05;;
46941;SDS011;32676;52.630;4.896;2023-06-22T14:26:16;9.07;;;3.05;;
46941;SDS011;32676;52.630;4.896;2023-06-22T14:28:43;7.03;;;2.50;;